Weather at Chişinău International Airport

Public forecast

Using degrees Celsius for public forecast. Weather courtesy of forecast.io.

Current aviation weather report (METAR) for Chişinău International Airport

Report is more than 6 hours old.

2022/11/14 15:30 (retrieved 2 years ago)

LUKK 141530Z 36007KT 9999 FEW030 08/06 Q1026 NOSIG

Aviation forecast (TAF) for Chişinău International Airport

Forecast is more than 12 hours old.

2023/02/22 18:21 (retrieved 1 year ago)

TAF TAF LUKK 221718Z 2218/2318 06006KT CAVOK BECMG 2222/2224 BKN015 TEMPO 2300/2308 BKN008